sensor_id;sensor_type;location;lat;lon;timestamp;temperature;humidity
11454;DHT22;5783;55.174;61.310;2022-12-29T00:00:38;14.30;62.30
11454;DHT22;5783;55.174;61.310;2022-12-29T00:03:07;14.20;62.40
11454;DHT22;5783;55.174;61.310;2022-12-29T00:05:37;14.20;62.80
11454;DHT22;5783;55.174;61.310;2022-12-29T00:08:25;14.30;62.50
11454;DHT22;5783;55.174;61.310;2022-12-29T00:13:27;14.20;61.80
11454;DHT22;5783;55.174;61.310;2022-12-29T00:16:15;14.20;61.70
11454;DHT22;5783;55.174;61.310;2022-12-29T00:18:44;14.10;58.00
11454;DHT22;5783;55.174;61.310;2022-12-29T00:21:33;14.10;57.20
11454;DHT22;5783;55.174;61.310;2022-12-29T00:24:22;14.20;56.70
11454;DHT22;5783;55.174;61.310;2022-12-29T00:27:12;14.30;58.00
11454;DHT22;5783;55.174;61.310;2022-12-29T00:30:00;14.30;60.20
11454;DHT22;5783;55.174;61.310;2022-12-29T00:32:50;14.30;59.90
11454;DHT22;5783;55.174;61.310;2022-12-29T00:36:16;14.30;59.80
11454;DHT22;5783;55.174;61.310;2022-12-29T00:38:11;14.30;59.70
11454;DHT22;5783;55.174;61.310;2022-12-29T00:41:01;14.30;59.40
11454;DHT22;5783;55.174;61.310;2022-12-29T00:43:49;14.30;59.60
11454;DHT22;5783;55.174;61.310;2022-12-29T00:46:39;14.30;59.40
11454;DHT22;5783;55.174;61.310;2022-12-29T00:49:11;14.30;59.20
11454;DHT22;5783;55.174;61.310;2022-12-29T00:52:03;14.30;59.10
11454;DHT22;5783;55.174;61.310;2022-12-29T00:54:34;14.30;59.00
11454;DHT22;5783;55.174;61.310;2022-12-29T00:57:06;14.40;59.00
11454;DHT22;5783;55.174;61.310;2022-12-29T00:59:36;14.40;58.90
11454;DHT22;5783;55.174;61.310;2022-12-29T01:02:06;14.40;59.00
11454;DHT22;5783;55.174;61.310;2022-12-29T01:04:35;14.40;59.30
11454;DHT22;5783;55.174;61.310;2022-12-29T01:07:04;14.40;59.50
11454;DHT22;5783;55.174;61.310;2022-12-29T01:09:34;14.40;59.70
11454;DHT22;5783;55.174;61.310;2022-12-29T01:12:22;14.30;59.50
11454;DHT22;5783;55.174;61.310;2022-12-29T01:15:13;14.30;59.30
11454;DHT22;5783;55.174;61.310;2022-12-29T01:17:43;14.30;58.80
11454;DHT22;5783;55.174;61.310;2022-12-29T01:20:12;14.30;58.80
11454;DHT22;5783;55.174;61.310;2022-12-29T01:22:41;14.30;58.70
11454;DHT22;5783;55.174;61.310;2022-12-29T01:25:10;14.40;59.00
11454;DHT22;5783;55.174;61.310;2022-12-29T01:27:41;14.50;63.80
11454;DHT22;5783;55.174;61.310;2022-12-29T01:30:10;14.60;65.40
11454;DHT22;5783;55.174;61.310;2022-12-29T01:32:39;14.60;65.90
11454;DHT22;5783;55.174;61.310;2022-12-29T01:35:09;14.60;66.50
11454;DHT22;5783;55.174;61.310;2022-12-29T01:40:26;14.70;68.30
11454;DHT22;5783;55.174;61.310;2022-12-29T01:42:56;14.60;70.30
11454;DHT22;5783;55.174;61.310;2022-12-29T01:45:25;14.70;72.80
11454;DHT22;5783;55.174;61.310;2022-12-29T01:47:57;14.80;70.20
11454;DHT22;5783;55.174;61.310;2022-12-29T01:50:47;14.70;67.20
11454;DHT22;5783;55.174;61.310;2022-12-29T01:53:18;14.70;65.90
11454;DHT22;5783;55.174;61.310;2022-12-29T01:56:07;14.60;65.40
11454;DHT22;5783;55.174;61.310;2022-12-29T01:58:41;14.70;62.40
11454;DHT22;5783;55.174;61.310;2022-12-29T02:01:10;14.80;61.60
11454;DHT22;5783;55.174;61.310;2022-12-29T02:03:40;14.80;60.60
11454;DHT22;5783;55.174;61.310;2022-12-29T02:09:00;14.70;60.40
11454;DHT22;5783;55.174;61.310;2022-12-29T02:11:30;14.70;59.80
11454;DHT22;5783;55.174;61.310;2022-12-29T02:13:59;14.70;59.00
11454;DHT22;5783;55.174;61.310;2022-12-29T02:26:16;14.90;58.50
11454;DHT22;5783;55.174;61.310;2022-12-29T02:53:15;14.40;57.10
11454;DHT22;5783;55.174;61.310;2022-12-29T02:56:06;14.50;56.40
11454;DHT22;5783;55.174;61.310;2022-12-29T02:58:36;14.50;48.80
11454;DHT22;5783;55.174;61.310;2022-12-29T03:16:52;14.40;47.40
11454;DHT22;5783;55.174;61.310;2022-12-29T03:22:32;14.60;46.20
11454;DHT22;5783;55.174;61.310;2022-12-29T03:31:03;14.70;47.30
11454;DHT22;5783;55.174;61.310;2022-12-29T03:33:33;14.70;47.40
11454;DHT22;5783;55.174;61.310;2022-12-29T03:36:44;14.60;47.00
11454;DHT22;5783;55.174;61.310;2022-12-29T03:39:13;14.70;46.80
11454;DHT22;5783;55.174;61.310;2022-12-29T03:41:44;14.60;46.80
11454;DHT22;5783;55.174;61.310;2022-12-29T03:44:14;14.60;46.90
11454;DHT22;5783;55.174;61.310;2022-12-29T03:46:43;14.60;46.80
11454;DHT22;5783;55.174;61.310;2022-12-29T03:49:12;14.60;46.80
11454;DHT22;5783;55.174;61.310;2022-12-29T03:51:41;14.60;44.30
11454;DHT22;5783;55.174;61.310;2022-12-29T03:54:11;14.60;41.90
11454;DHT22;5783;55.174;61.310;2022-12-29T03:56:40;14.50;50.00
11454;DHT22;5783;55.174;61.310;2022-12-29T03:59:09;14.50;49.80
11454;DHT22;5783;55.174;61.310;2022-12-29T04:01:38;14.40;53.00
11454;DHT22;5783;55.174;61.310;2022-12-29T04:04:07;14.40;52.90
11454;DHT22;5783;55.174;61.310;2022-12-29T04:06:36;14.40;50.20
11454;DHT22;5783;55.174;61.310;2022-12-29T04:09:06;14.40;49.20
11454;DHT22;5783;55.174;61.310;2022-12-29T04:11:36;14.40;48.80
11454;DHT22;5783;55.174;61.310;2022-12-29T04:14:06;14.30;48.80
11454;DHT22;5783;55.174;61.310;2022-12-29T04:16:36;14.30;49.60
11454;DHT22;5783;55.174;61.310;2022-12-29T04:21:34;14.30;51.50
11454;DHT22;5783;55.174;61.310;2022-12-29T04:24:04;14.20;51.30
11454;DHT22;5783;55.174;61.310;2022-12-29T04:26:33;14.30;53.00
11454;DHT22;5783;55.174;61.310;2022-12-29T04:31:31;14.50;54.90
11454;DHT22;5783;55.174;61.310;2022-12-29T04:34:00;14.60;56.20
11454;DHT22;5783;55.174;61.310;2022-12-29T04:36:30;14.70;57.00
11454;DHT22;5783;55.174;61.310;2022-12-29T04:38:59;14.70;56.00
11454;DHT22;5783;55.174;61.310;2022-12-29T04:41:28;14.70;54.40
11454;DHT22;5783;55.174;61.310;2022-12-29T04:46:26;15.00;44.90
11454;DHT22;5783;55.174;61.310;2022-12-29T04:53:52;16.40;41.10
11454;DHT22;5783;55.174;61.310;2022-12-29T04:58:50;15.90;44.20
11454;DHT22;5783;55.174;61.310;2022-12-29T05:03:50;16.00;73.70
11454;DHT22;5783;55.174;61.310;2022-12-29T05:08:48;16.10;45.00
11454;DHT22;5783;55.174;61.310;2022-12-29T05:13:46;16.10;47.30
11454;DHT22;5783;55.174;61.310;2022-12-29T05:16:15;16.30;53.10
11454;DHT22;5783;55.174;61.310;2022-12-29T05:18:45;16.20;50.00
11454;DHT22;5783;55.174;61.310;2022-12-29T05:23:42;16.40;68.50
11454;DHT22;5783;55.174;61.310;2022-12-29T05:26:12;16.50;55.70
11454;DHT22;5783;55.174;61.310;2022-12-29T05:28:41;16.60;45.20
11454;DHT22;5783;55.174;61.310;2022-12-29T05:31:10;16.70;43.40
11454;DHT22;5783;55.174;61.310;2022-12-29T05:33:39;16.40;46.10
11454;DHT22;5783;55.174;61.310;2022-12-29T05:36:09;16.70;44.80
11454;DHT22;5783;55.174;61.310;2022-12-29T05:38:38;16.40;44.60
11454;DHT22;5783;55.174;61.310;2022-12-29T05:41:07;16.30;45.80
11454;DHT22;5783;55.174;61.310;2022-12-29T05:43:36;16.40;46.60
11454;DHT22;5783;55.174;61.310;2022-12-29T05:46:06;16.30;47.80
11454;DHT22;5783;55.174;61.310;2022-12-29T05:48:35;16.20;46.70
11454;DHT22;5783;55.174;61.310;2022-12-29T05:51:04;16.10;43.20
11454;DHT22;5783;55.174;61.310;2022-12-29T05:53:33;16.20;43.30
11454;DHT22;5783;55.174;61.310;2022-12-29T05:56:03;16.00;42.30
11454;DHT22;5783;55.174;61.310;2022-12-29T05:58:51;16.20;42.80
11454;DHT22;5783;55.174;61.310;2022-12-29T06:01:20;16.00;42.30
11454;DHT22;5783;55.174;61.310;2022-12-29T06:03:50;15.90;41.90
11454;DHT22;5783;55.174;61.310;2022-12-29T06:06:19;16.20;43.90
11454;DHT22;5783;55.174;61.310;2022-12-29T06:08:48;16.20;44.10
11454;DHT22;5783;55.174;61.310;2022-12-29T06:11:17;16.20;47.80
11454;DHT22;5783;55.174;61.310;2022-12-29T06:13:46;16.00;47.70
11454;DHT22;5783;55.174;61.310;2022-12-29T06:16:15;16.20;58.60
11454;DHT22;5783;55.174;61.310;2022-12-29T06:18:45;16.20;37.60
11454;DHT22;5783;55.174;61.310;2022-12-29T06:21:15;16.20;41.00
11454;DHT22;5783;55.174;61.310;2022-12-29T06:23:44;16.20;40.40
11454;DHT22;5783;55.174;61.310;2022-12-29T06:26:13;16.30;40.80
11454;DHT22;5783;55.174;61.310;2022-12-29T06:31:11;16.00;43.70
11454;DHT22;5783;55.174;61.310;2022-12-29T06:48:33;15.50;31.80
11454;DHT22;5783;55.174;61.310;2022-12-29T07:16:09;15.20;35.80
11454;DHT22;5783;55.174;61.310;2022-12-29T07:33:35;15.40;31.20
11454;DHT22;5783;55.174;61.310;2022-12-29T07:36:05;15.40;32.00
11454;DHT22;5783;55.174;61.310;2022-12-29T07:38:34;15.40;32.20
11454;DHT22;5783;55.174;61.310;2022-12-29T07:41:04;15.40;31.80
11454;DHT22;5783;55.174;61.310;2022-12-29T07:43:34;15.50;27.20
11454;DHT22;5783;55.174;61.310;2022-12-29T07:46:03;15.60;26.60
11454;DHT22;5783;55.174;61.310;2022-12-29T07:48:32;15.70;27.30
11454;DHT22;5783;55.174;61.310;2022-12-29T07:51:02;15.70;27.20
11454;DHT22;5783;55.174;61.310;2022-12-29T07:53:31;15.80;26.80
11454;DHT22;5783;55.174;61.310;2022-12-29T07:56:00;15.80;27.20
11454;DHT22;5783;55.174;61.310;2022-12-29T07:58:49;15.80;27.30
11454;DHT22;5783;55.174;61.310;2022-12-29T08:01:18;15.80;27.00
11454;DHT22;5783;55.174;61.310;2022-12-29T08:03:50;15.80;27.50
11454;DHT22;5783;55.174;61.310;2022-12-29T08:06:19;15.80;26.90
11454;DHT22;5783;55.174;61.310;2022-12-29T08:08:48;15.80;26.20
11454;DHT22;5783;55.174;61.310;2022-12-29T08:11:18;15.80;25.90
11454;DHT22;5783;55.174;61.310;2022-12-29T08:13:47;15.80;25.70
11454;DHT22;5783;55.174;61.310;2022-12-29T08:16:18;15.70;25.60
11454;DHT22;5783;55.174;61.310;2022-12-29T08:18:47;15.70;25.50
11454;DHT22;5783;55.174;61.310;2022-12-29T08:21:16;15.70;25.30
11454;DHT22;5783;55.174;61.310;2022-12-29T08:26:16;15.70;25.10
11454;DHT22;5783;55.174;61.310;2022-12-29T08:28:45;15.70;25.00
11454;DHT22;5783;55.174;61.310;2022-12-29T08:31:15;15.70;25.10
11454;DHT22;5783;55.174;61.310;2022-12-29T08:33:44;15.70;25.20
11454;DHT22;5783;55.174;61.310;2022-12-29T08:36:32;15.70;25.00
11454;DHT22;5783;55.174;61.310;2022-12-29T08:39:01;15.70;24.80
11454;DHT22;5783;55.174;61.310;2022-12-29T08:41:31;15.70;24.90
11454;DHT22;5783;55.174;61.310;2022-12-29T08:44:00;15.70;24.90
11454;DHT22;5783;55.174;61.310;2022-12-29T08:46:29;15.70;24.90
11454;DHT22;5783;55.174;61.310;2022-12-29T08:49:17;15.70;24.90
11454;DHT22;5783;55.174;61.310;2022-12-29T08:51:47;15.70;24.90
11454;DHT22;5783;55.174;61.310;2022-12-29T08:54:16;15.60;24.90
11454;DHT22;5783;55.174;61.310;2022-12-29T08:56:45;15.60;24.90
11454;DHT22;5783;55.174;61.310;2022-12-29T08:59:14;15.60;24.90
11454;DHT22;5783;55.174;61.310;2022-12-29T09:01:43;15.60;24.80
11454;DHT22;5783;55.174;61.310;2022-12-29T09:04:12;15.50;24.60
11454;DHT22;5783;55.174;61.310;2022-12-29T09:06:42;15.50;24.80
11454;DHT22;5783;55.174;61.310;2022-12-29T09:09:11;15.50;25.00
11454;DHT22;5783;55.174;61.310;2022-12-29T09:11:41;15.50;24.80
11454;DHT22;5783;55.174;61.310;2022-12-29T09:14:11;15.60;24.80
11454;DHT22;5783;55.174;61.310;2022-12-29T09:16:42;15.50;24.70
11454;DHT22;5783;55.174;61.310;2022-12-29T09:19:31;15.40;24.80
11454;DHT22;5783;55.174;61.310;2022-12-29T09:22:00;15.40;25.10
11454;DHT22;5783;55.174;61.310;2022-12-29T09:24:29;15.40;25.10
11454;DHT22;5783;55.174;61.310;2022-12-29T09:26:58;15.50;25.20
11454;DHT22;5783;55.174;61.310;2022-12-29T09:29:28;15.60;25.00
11454;DHT22;5783;55.174;61.310;2022-12-29T09:31:57;15.60;24.90
11454;DHT22;5783;55.174;61.310;2022-12-29T09:34:26;15.70;24.90
11454;DHT22;5783;55.174;61.310;2022-12-29T09:36:55;15.70;24.80
11454;DHT22;5783;55.174;61.310;2022-12-29T09:39:24;15.80;24.80
11454;DHT22;5783;55.174;61.310;2022-12-29T09:47:52;15.80;24.50
11454;DHT22;5783;55.174;61.310;2022-12-29T09:50:41;15.80;24.60
11454;DHT22;5783;55.174;61.310;2022-12-29T09:56:02;15.90;24.60
11454;DHT22;5783;55.174;61.310;2022-12-29T10:02:32;15.90;24.70
11454;DHT22;5783;55.174;61.310;2022-12-29T10:04:33;15.90;24.70
11454;DHT22;5783;55.174;61.310;2022-12-29T10:09:39;15.80;24.70
11454;DHT22;5783;55.174;61.310;2022-12-29T10:24:07;15.80;24.60
11454;DHT22;5783;55.174;61.310;2022-12-29T10:32:55;15.80;24.40
11454;DHT22;5783;55.174;61.310;2022-12-29T10:35:30;15.80;24.40
11454;DHT22;5783;55.174;61.310;2022-12-29T10:43:57;15.80;24.40
11454;DHT22;5783;55.174;61.310;2022-12-29T10:49:18;15.80;24.50
11454;DHT22;5783;55.174;61.310;2022-12-29T10:51:49;15.80;24.50
11454;DHT22;5783;55.174;61.310;2022-12-29T10:54:21;15.90;24.30
11454;DHT22;5783;55.174;61.310;2022-12-29T10:59:59;15.80;24.40
11454;DHT22;5783;55.174;61.310;2022-12-29T11:05:06;15.90;24.40
11454;DHT22;5783;55.174;61.310;2022-12-29T11:07:36;15.90;24.40
11454;DHT22;5783;55.174;61.310;2022-12-29T11:13:17;15.90;24.60
11454;DHT22;5783;55.174;61.310;2022-12-29T11:15:48;15.90;24.60
11454;DHT22;5783;55.174;61.310;2022-12-29T11:24:36;15.90;26.80
11454;DHT22;5783;55.174;61.310;2022-12-29T11:27:26;15.90;26.80
11454;DHT22;5783;55.174;61.310;2022-12-29T11:29:55;15.90;26.60
11454;DHT22;5783;55.174;61.310;2022-12-29T11:32:50;15.80;26.40
11454;DHT22;5783;55.174;61.310;2022-12-29T11:40:55;15.90;26.40
11454;DHT22;5783;55.174;61.310;2022-12-29T11:46:00;15.70;25.30
11454;DHT22;5783;55.174;61.310;2022-12-29T11:48:32;15.60;24.80
11454;DHT22;5783;55.174;61.310;2022-12-29T11:51:02;15.50;24.70
11454;DHT22;5783;55.174;61.310;2022-12-29T11:53:51;15.50;24.30
11454;DHT22;5783;55.174;61.310;2022-12-29T11:56:42;15.50;24.10
11454;DHT22;5783;55.174;61.310;2022-12-29T12:11:32;15.30;24.90
11454;DHT22;5783;55.174;61.310;2022-12-29T12:14:23;15.20;25.20
11454;DHT22;5783;55.174;61.310;2022-12-29T12:17:13;15.10;30.40
11454;DHT22;5783;55.174;61.310;2022-12-29T12:22:35;14.80;45.30
11454;DHT22;5783;55.174;61.310;2022-12-29T12:33:57;15.00;42.00
11454;DHT22;5783;55.174;61.310;2022-12-29T12:52:30;15.00;39.20
11454;DHT22;5783;55.174;61.310;2022-12-29T13:28:49;15.20;29.70
11454;DHT22;5783;55.174;61.310;2022-12-29T13:37:26;15.10;29.40
11454;DHT22;5783;55.174;61.310;2022-12-29T13:42:30;15.10;29.50
11454;DHT22;5783;55.174;61.310;2022-12-29T13:45:20;15.00;30.00
11454;DHT22;5783;55.174;61.310;2022-12-29T13:50:59;15.00;29.90
11454;DHT22;5783;55.174;61.310;2022-12-29T13:56:40;15.00;30.20
11454;DHT22;5783;55.174;61.310;2022-12-29T14:05:28;15.00;29.90
11454;DHT22;5783;55.174;61.310;2022-12-29T14:08:32;15.00;32.10
11454;DHT22;5783;55.174;61.310;2022-12-29T14:13:22;15.00;34.90
11454;DHT22;5783;55.174;61.310;2022-12-29T14:16:24;15.00;34.00
11454;DHT22;5783;55.174;61.310;2022-12-29T14:18:43;15.00;34.00
11454;DHT22;5783;55.174;61.310;2022-12-29T14:21:32;15.00;33.40
11454;DHT22;5783;55.174;61.310;2022-12-29T14:26:51;15.00;32.80
11454;DHT22;5783;55.174;61.310;2022-12-29T14:38:04;14.90;32.60
11454;DHT22;5783;55.174;61.310;2022-12-29T14:40:25;14.90;34.00
11454;DHT22;5783;55.174;61.310;2022-12-29T14:42:55;14.80;38.00
11454;DHT22;5783;55.174;61.310;2022-12-29T14:54:34;14.80;38.10
11454;DHT22;5783;55.174;61.310;2022-12-29T14:57:06;14.80;37.80
11454;DHT22;5783;55.174;61.310;2022-12-29T14:59:36;14.70;38.10
11454;DHT22;5783;55.174;61.310;2022-12-29T15:04:58;14.30;61.80
11454;DHT22;5783;55.174;61.310;2022-12-29T15:07:29;14.10;53.50
11454;DHT22;5783;55.174;61.310;2022-12-29T15:15:38;13.60;59.50
11454;DHT22;5783;55.174;61.310;2022-12-29T15:31:23;13.50;76.20
11454;DHT22;5783;55.174;61.310;2022-12-29T15:33:55;13.60;73.90
11454;DHT22;5783;55.174;61.310;2022-12-29T15:36:44;13.70;72.00
11454;DHT22;5783;55.174;61.310;2022-12-29T15:39:33;13.70;71.10
11454;DHT22;5783;55.174;61.310;2022-12-29T15:45:12;13.80;71.10
11454;DHT22;5783;55.174;61.310;2022-12-29T15:47:43;13.70;71.00
11454;DHT22;5783;55.174;61.310;2022-12-29T15:50:34;13.70;71.20
11454;DHT22;5783;55.174;61.310;2022-12-29T15:55:39;13.60;71.10
11454;DHT22;5783;55.174;61.310;2022-12-29T15:58:29;13.60;70.50
11454;DHT22;5783;55.174;61.310;2022-12-29T16:01:00;13.60;71.00
11454;DHT22;5783;55.174;61.310;2022-12-29T16:03:49;13.60;71.30
11454;DHT22;5783;55.174;61.310;2022-12-29T16:06:39;13.70;71.40
11454;DHT22;5783;55.174;61.310;2022-12-29T16:09:30;13.80;71.50
11454;DHT22;5783;55.174;61.310;2022-12-29T16:23:19;13.90;74.70
11454;DHT22;5783;55.174;61.310;2022-12-29T16:25:49;13.90;73.90
11454;DHT22;5783;55.174;61.310;2022-12-29T16:28:22;13.90;73.40
11454;DHT22;5783;55.174;61.310;2022-12-29T16:42:49;14.00;72.40
11454;DHT22;5783;55.174;61.310;2022-12-29T16:56:58;14.00;71.50
11454;DHT22;5783;55.174;61.310;2022-12-29T16:59:46;14.00;71.70
11454;DHT22;5783;55.174;61.310;2022-12-29T17:02:19;14.00;71.70
11454;DHT22;5783;55.174;61.310;2022-12-29T17:04:49;14.00;72.20
11454;DHT22;5783;55.174;61.310;2022-12-29T17:07:22;14.00;72.20
11454;DHT22;5783;55.174;61.310;2022-12-29T17:09:52;14.00;72.00
11454;DHT22;5783;55.174;61.310;2022-12-29T17:12:26;14.00;72.00
11454;DHT22;5783;55.174;61.310;2022-12-29T17:17:45;14.00;72.00
11454;DHT22;5783;55.174;61.310;2022-12-29T17:20:18;14.00;71.80
11454;DHT22;5783;55.174;61.310;2022-12-29T17:22:47;14.00;72.00
11454;DHT22;5783;55.174;61.310;2022-12-29T17:25:21;14.00;71.70
11454;DHT22;5783;55.174;61.310;2022-12-29T17:27:53;14.00;71.60
11454;DHT22;5783;55.174;61.310;2022-12-29T17:30:25;14.00;71.70
11454;DHT22;5783;55.174;61.310;2022-12-29T17:33:14;13.90;72.50
11454;DHT22;5783;55.174;61.310;2022-12-29T17:35:45;14.00;61.40
11454;DHT22;5783;55.174;61.310;2022-12-29T17:38:16;13.90;60.20
11454;DHT22;5783;55.174;61.310;2022-12-29T17:40:46;13.90;57.50
11454;DHT22;5783;55.174;61.310;2022-12-29T17:43:16;13.90;59.30
11454;DHT22;5783;55.174;61.310;2022-12-29T17:45:48;13.90;61.00
11454;DHT22;5783;55.174;61.310;2022-12-29T17:48:18;13.90;62.20
11454;DHT22;5783;55.174;61.310;2022-12-29T17:53:37;13.90;58.50
11454;DHT22;5783;55.174;61.310;2022-12-29T18:01:04;13.90;55.30
11454;DHT22;5783;55.174;61.310;2022-12-29T18:03:36;14.00;48.10
11454;DHT22;5783;55.174;61.310;2022-12-29T19:02:04;13.70;49.50
11454;DHT22;5783;55.174;61.310;2022-12-29T19:04:33;13.90;50.90
11454;DHT22;5783;55.174;61.310;2022-12-29T19:07:02;13.80;48.20
11454;DHT22;5783;55.174;61.310;2022-12-29T19:09:32;14.00;51.90
11454;DHT22;5783;55.174;61.310;2022-12-29T19:16:58;14.00;54.60
11454;DHT22;5783;55.174;61.310;2022-12-29T19:24:24;14.10;57.80
11454;DHT22;5783;55.174;61.310;2022-12-29T19:26:53;13.70;47.90
11454;DHT22;5783;55.174;61.310;2022-12-29T19:54:08;14.10;37.90
11454;DHT22;5783;55.174;61.310;2022-12-29T19:56:37;14.20;37.90
11454;DHT22;5783;55.174;61.310;2022-12-29T19:59:08;14.20;37.80
11454;DHT22;5783;55.174;61.310;2022-12-29T20:01:37;14.20;37.60
11454;DHT22;5783;55.174;61.310;2022-12-29T20:04:06;14.20;37.70
11454;DHT22;5783;55.174;61.310;2022-12-29T20:06:35;14.30;37.90
11454;DHT22;5783;55.174;61.310;2022-12-29T20:09:04;14.30;37.70
11454;DHT22;5783;55.174;61.310;2022-12-29T20:11:34;14.30;38.90
11454;DHT22;5783;55.174;61.310;2022-12-29T20:14:03;14.30;39.30
11454;DHT22;5783;55.174;61.310;2022-12-29T20:16:33;14.30;39.90
11454;DHT22;5783;55.174;61.310;2022-12-29T20:19:02;14.30;40.90
11454;DHT22;5783;55.174;61.310;2022-12-29T20:21:31;14.40;42.40
11454;DHT22;5783;55.174;61.310;2022-12-29T20:24:20;14.30;42.40
11454;DHT22;5783;55.174;61.310;2022-12-29T20:26:49;14.30;42.40
11454;DHT22;5783;55.174;61.310;2022-12-29T20:29:20;14.30;42.20
11454;DHT22;5783;55.174;61.310;2022-12-29T20:31:50;14.30;42.10
11454;DHT22;5783;55.174;61.310;2022-12-29T20:34:19;14.30;41.70
11454;DHT22;5783;55.174;61.310;2022-12-29T20:36:48;14.40;41.90
11454;DHT22;5783;55.174;61.310;2022-12-29T20:39:19;14.40;41.90
11454;DHT22;5783;55.174;61.310;2022-12-29T20:41:48;14.30;41.90
11454;DHT22;5783;55.174;61.310;2022-12-29T20:44:19;14.30;41.80
11454;DHT22;5783;55.174;61.310;2022-12-29T20:46:48;14.30;41.80
11454;DHT22;5783;55.174;61.310;2022-12-29T20:49:18;14.30;41.70
11454;DHT22;5783;55.174;61.310;2022-12-29T20:51:47;14.30;41.90
11454;DHT22;5783;55.174;61.310;2022-12-29T20:54:16;14.30;42.10
11454;DHT22;5783;55.174;61.310;2022-12-29T20:56:46;14.30;42.20
11454;DHT22;5783;55.174;61.310;2022-12-29T20:59:15;14.30;42.10
11454;DHT22;5783;55.174;61.310;2022-12-29T21:01:44;14.20;42.00
11454;DHT22;5783;55.174;61.310;2022-12-29T21:04:13;14.20;42.20
11454;DHT22;5783;55.174;61.310;2022-12-29T21:06:43;14.30;42.10
11454;DHT22;5783;55.174;61.310;2022-12-29T21:09:12;14.30;42.20
11454;DHT22;5783;55.174;61.310;2022-12-29T21:11:41;14.40;42.10
11454;DHT22;5783;55.174;61.310;2022-12-29T21:14:10;14.40;50.10
11454;DHT22;5783;55.174;61.310;2022-12-29T21:16:39;14.50;53.00
11454;DHT22;5783;55.174;61.310;2022-12-29T21:19:08;14.50;53.40
11454;DHT22;5783;55.174;61.310;2022-12-29T21:21:39;14.40;53.60
11454;DHT22;5783;55.174;61.310;2022-12-29T21:24:08;14.50;53.70
11454;DHT22;5783;55.174;61.310;2022-12-29T21:26:37;14.50;53.80
11454;DHT22;5783;55.174;61.310;2022-12-29T21:29:06;14.50;54.10
11454;DHT22;5783;55.174;61.310;2022-12-29T21:31:36;14.40;54.10
11454;DHT22;5783;55.174;61.310;2022-12-29T21:34:06;14.40;54.00
11454;DHT22;5783;55.174;61.310;2022-12-29T21:36:35;14.40;54.00
11454;DHT22;5783;55.174;61.310;2022-12-29T21:39:04;14.40;53.70
11454;DHT22;5783;55.174;61.310;2022-12-29T21:41:33;14.40;53.80
11454;DHT22;5783;55.174;61.310;2022-12-29T21:44:02;14.40;53.70
11454;DHT22;5783;55.174;61.310;2022-12-29T21:46:51;14.40;53.80
11454;DHT22;5783;55.174;61.310;2022-12-29T21:49:20;14.40;53.80
11454;DHT22;5783;55.174;61.310;2022-12-29T21:51:51;14.40;53.80
11454;DHT22;5783;55.174;61.310;2022-12-29T21:54:42;14.40;53.90
11454;DHT22;5783;55.174;61.310;2022-12-29T21:57:30;14.40;53.80
11454;DHT22;5783;55.174;61.310;2022-12-29T22:00:19;14.40;54.10
11454;DHT22;5783;55.174;61.310;2022-12-29T22:03:08;14.50;54.00
11454;DHT22;5783;55.174;61.310;2022-12-29T22:05:57;14.40;54.10
11454;DHT22;5783;55.174;61.310;2022-12-29T22:08:46;14.40;54.20
11454;DHT22;5783;55.174;61.310;2022-12-29T22:11:35;14.40;54.20
11454;DHT22;5783;55.174;61.310;2022-12-29T22:14:23;14.30;54.00
11454;DHT22;5783;55.174;61.310;2022-12-29T22:16:53;14.30;54.00
11454;DHT22;5783;55.174;61.310;2022-12-29T22:19:22;14.30;53.90
11454;DHT22;5783;55.174;61.310;2022-12-29T22:21:51;14.30;54.00
11454;DHT22;5783;55.174;61.310;2022-12-29T22:24:20;14.30;53.80
11454;DHT22;5783;55.174;61.310;2022-12-29T22:26:50;14.30;53.70
11454;DHT22;5783;55.174;61.310;2022-12-29T22:29:19;14.30;53.30
11454;DHT22;5783;55.174;61.310;2022-12-29T22:31:48;14.40;53.30
11454;DHT22;5783;55.174;61.310;2022-12-29T22:34:17;14.40;53.30
11454;DHT22;5783;55.174;61.310;2022-12-29T22:36:46;14.40;53.20
11454;DHT22;5783;55.174;61.310;2022-12-29T22:39:15;14.30;53.20
11454;DHT22;5783;55.174;61.310;2022-12-29T22:42:05;14.40;53.20
11454;DHT22;5783;55.174;61.310;2022-12-29T22:44:34;14.40;53.10
11454;DHT22;5783;55.174;61.310;2022-12-29T22:47:03;14.30;53.00
11454;DHT22;5783;55.174;61.310;2022-12-29T22:49:32;14.30;53.00
11454;DHT22;5783;55.174;61.310;2022-12-29T22:52:02;14.30;53.40
11454;DHT22;5783;55.174;61.310;2022-12-29T22:54:31;14.20;53.30
11454;DHT22;5783;55.174;61.310;2022-12-29T22:57:00;14.20;53.20
11454;DHT22;5783;55.174;61.310;2022-12-29T22:59:49;14.20;53.40
11454;DHT22;5783;55.174;61.310;2022-12-29T23:02:18;14.10;46.50
11454;DHT22;5783;55.174;61.310;2022-12-29T23:04:47;14.20;46.60
11454;DHT22;5783;55.174;61.310;2022-12-29T23:07:16;14.20;45.90
11454;DHT22;5783;55.174;61.310;2022-12-29T23:09:45;14.20;45.80
11454;DHT22;5783;55.174;61.310;2022-12-29T23:12:16;14.30;45.50
11454;DHT22;5783;55.174;61.310;2022-12-29T23:14:45;14.30;46.30
11454;DHT22;5783;55.174;61.310;2022-12-29T23:17:15;14.30;46.90
11454;DHT22;5783;55.174;61.310;2022-12-29T23:19:44;14.40;46.60
11454;DHT22;5783;55.174;61.310;2022-12-29T23:22:13;14.30;47.60
11454;DHT22;5783;55.174;61.310;2022-12-29T23:24:42;14.30;47.30
11454;DHT22;5783;55.174;61.310;2022-12-29T23:27:11;14.40;47.10
11454;DHT22;5783;55.174;61.310;2022-12-29T23:29:40;14.30;46.90
11454;DHT22;5783;55.174;61.310;2022-12-29T23:32:09;14.30;46.70
11454;DHT22;5783;55.174;61.310;2022-12-29T23:34:39;14.30;46.60
11454;DHT22;5783;55.174;61.310;2022-12-29T23:37:08;14.30;46.50
11454;DHT22;5783;55.174;61.310;2022-12-29T23:39:37;14.20;46.00
11454;DHT22;5783;55.174;61.310;2022-12-29T23:42:06;14.20;45.90
11454;DHT22;5783;55.174;61.310;2022-12-29T23:44:37;14.20;45.60
11454;DHT22;5783;55.174;61.310;2022-12-29T23:47:06;14.20;45.50
11454;DHT22;5783;55.174;61.310;2022-12-29T23:49:35;14.20;45.10
11454;DHT22;5783;55.174;61.310;2022-12-29T23:52:04;14.30;45.30
11454;DHT22;5783;55.174;61.310;2022-12-29T23:54:33;14.20;45.20
11454;DHT22;5783;55.174;61.310;2022-12-29T23:57:02;14.20;45.40
11454;DHT22;5783;55.174;61.310;2022-12-29T23:59:31;14.20;45.50
